Time;durP1;ratioP1;P1;durP2;ratioP2;P2;SDS_P1;SDS_P2;PMS_P1;PMS_P2;Temp;Humidity;BMP_temperature;BMP_pressure;BME280_temperature;BME280_humidity;BME280_pressure;Samples;Min_cycle;Max_cycle;Signal;HPM_P1;HPM_P2
2021/05/05 00:00:35;;;;;;;0.70;0.63;;;6.50;99.90;;;6.83;100.00;-20868.00;4992036;28;20196;-69
2021/05/05 00:03:02;;;;;;;0.70;0.60;;;6.50;99.90;;;6.87;100.00;-20869.09;4994754;28;20239;-69
2021/05/05 00:05:30;;;;;;;0.70;0.60;;;6.50;99.90;;;6.92;100.00;-20870.50;4991409;28;20184;-71
2021/05/05 00:07:58;;;;;;;0.70;0.60;;;6.50;99.90;;;6.98;100.00;-20872.16;4992224;28;20691;-70
2021/05/05 00:10:25;;;;;;;0.70;0.60;;;6.50;99.90;;;6.92;100.00;-20870.50;4999475;28;20274;-70
2021/05/05 00:12:52;;;;;;;0.70;0.70;;;6.50;99.90;;;7.00;100.00;-20872.72;4995857;28;20201;-69
2021/05/05 00:15:23;;;;;;;0.77;0.60;;;6.50;99.90;;;6.82;100.00;-20867.72;5011400;28;20179;-67
2021/05/05 00:17:51;;;;;;;0.70;0.60;;;6.50;99.90;;;6.91;100.00;-20870.34;4992894;28;20192;-71
2021/05/05 00:20:21;;;;;;;0.70;0.60;;;6.50;99.90;;;6.99;100.00;-20872.56;4991783;28;20304;-70
2021/05/05 00:22:50;;;;;;;0.70;0.60;;;6.50;99.90;;;6.88;100.00;-20869.38;4992952;28;20592;-70
2021/05/05 00:25:18;;;;;;;0.70;0.60;;;6.50;99.90;;;6.93;100.00;-20870.78;4994498;28;20192;-69
2021/05/05 00:28:05;;;;;;;0.70;0.60;;;6.50;99.90;;;6.87;100.00;-20869.09;4973704;28;20661;-69
2021/05/05 00:30:34;;;;;;;0.70;0.60;;;6.50;99.90;;;6.89;100.00;-20869.81;4999674;28;20198;-69
2021/05/05 00:33:01;;;;;;;0.75;0.65;;;6.50;99.90;;;6.89;100.00;-20869.66;4975854;28;20200;-69
2021/05/05 00:35:29;;;;;;;0.70;0.60;;;6.40;99.90;;;6.91;100.00;-20870.22;4982777;28;20203;-69
2021/05/05 00:38:05;;;;;;;0.70;0.60;;;6.50;99.90;;;6.98;100.00;-20872.16;4975091;28;20207;-69
2021/05/05 00:40:32;;;;;;;0.73;0.65;;;6.50;99.90;;;6.88;100.00;-20869.38;4976030;28;20208;-69
2021/05/05 00:42:59;;;;;;;0.70;0.65;;;6.50;99.90;;;6.88;100.00;-20869.38;4980528;28;20575;-69
2021/05/05 00:45:26;;;;;;;0.70;0.60;;;6.50;99.90;;;6.89;100.00;-20869.81;4995489;28;20176;-69
2021/05/05 00:47:53;;;;;;;0.70;0.70;;;6.50;99.90;;;6.93;100.00;-20870.91;4995211;28;20687;-69
2021/05/05 00:50:21;;;;;;;0.80;0.70;;;6.50;99.90;;;6.85;100.00;-20868.69;4995663;28;20202;-69
2021/05/05 00:52:48;;;;;;;0.70;0.60;;;6.50;99.90;;;6.87;100.00;-20869.09;4995641;28;20616;-68
2021/05/05 00:55:16;;;;;;;0.70;0.60;;;6.50;99.90;;;6.77;100.00;-20866.59;4975190;28;20200;-69
2021/05/05 00:57:48;;;;;;;0.70;0.50;;;6.40;99.90;;;6.81;100.00;-20867.44;4979432;28;20667;-70
2021/05/05 01:00:20;;;;;;;0.70;0.63;;;6.40;99.90;;;6.76;100.00;-20866.31;4982604;28;20609;-68
2021/05/05 01:02:48;;;;;;;0.70;0.60;;;6.40;99.90;;;6.66;100.00;-20863.53;4997155;28;20277;-70
2021/05/05 01:05:17;;;;;;;0.80;0.80;;;6.30;99.90;;;6.76;100.00;-20866.31;4995924;28;20168;-69
2021/05/05 01:07:48;;;;;;;0.77;0.70;;;6.30;99.90;;;6.77;100.00;-20866.47;4994268;28;20217;-69
2021/05/05 01:10:20;;;;;;;0.70;0.60;;;6.40;99.90;;;6.77;100.00;-20866.59;4979053;28;20230;-69
2021/05/05 01:12:49;;;;;;;0.80;0.70;;;6.30;99.90;;;6.66;100.00;-20863.41;4978808;28;20667;-69
2021/05/05 01:15:17;;;;;;;0.70;0.60;;;6.30;99.90;;;6.44;100.00;-20857.56;4997341;28;20250;-68
2021/05/05 01:17:45;;;;;;;0.70;0.60;;;6.10;99.90;;;6.44;100.00;-20857.44;4977834;28;20203;-70
2021/05/05 01:20:16;;;;;;;0.70;0.60;;;6.10;99.90;;;6.50;100.00;-20859.25;4979120;28;20515;-69
2021/05/05 01:22:45;;;;;;;0.70;0.70;;;6.10;99.90;;;6.41;100.00;-20856.59;4983599;28;20222;-69
2021/05/05 01:25:16;;;;;;;0.70;0.60;;;6.00;99.90;;;6.47;100.00;-20858.41;4979815;28;20192;-69
2021/05/05 01:27:44;;;;;;;0.70;0.70;;;6.10;99.90;;;6.33;100.00;-20854.50;4993886;28;20231;-69
2021/05/05 01:30:16;;;;;;;0.70;0.60;;;6.00;99.90;;;6.35;100.00;-20854.94;4994771;28;20672;-69
2021/05/05 01:32:44;;;;;;;0.70;0.70;;;6.00;99.90;;;6.58;100.00;-20861.31;4993869;28;20195;-70
2021/05/05 01:35:13;;;;;;;0.70;0.60;;;6.20;99.90;;;6.59;100.00;-20861.59;4982681;28;20548;-69
2021/05/05 01:37:41;;;;;;;0.70;0.60;;;6.20;99.90;;;6.63;100.00;-20862.72;4980619;28;20640;-68
2021/05/05 01:40:17;;;;;;;0.70;0.60;;;6.20;99.90;;;6.71;100.00;-20864.78;4994266;28;20200;-67
2021/05/05 01:42:45;;;;;;;0.70;0.60;;;6.20;99.90;;;6.85;100.00;-20868.53;4994655;28;20201;-70
2021/05/05 01:45:14;;;;;;;0.73;0.60;;;6.30;99.90;;;6.78;100.00;-20866.88;4994321;28;20195;-70
2021/05/05 01:47:42;;;;;;;0.70;0.60;;;6.30;99.90;;;6.68;100.00;-20864.09;4993785;28;20192;-68
2021/05/05 01:50:11;;;;;;;0.70;0.60;;;6.20;99.90;;;6.64;100.00;-20863.00;4996024;28;20199;-68
2021/05/05 01:52:39;;;;;;;0.70;0.60;;;6.10;99.90;;;6.69;100.00;-20864.38;4996209;28;20562;-68
2021/05/05 01:55:08;;;;;;;0.80;0.73;;;6.20;99.90;;;6.69;100.00;-20864.38;4977968;28;20192;-68
2021/05/05 01:57:42;;;;;;;0.73;0.63;;;6.20;99.90;;;6.75;100.00;-20866.03;4993625;28;20581;-68
2021/05/05 02:00:28;;;;;;;0.70;0.60;;;6.30;99.90;;;6.69;100.00;-20864.38;4994579;28;20592;-68
2021/05/05 02:03:03;;;;;;;0.70;0.60;;;6.30;99.90;;;6.54;100.00;-20860.22;4978220;28;20223;-68
2021/05/05 02:05:35;;;;;;;0.70;0.60;;;6.10;99.90;;;6.61;100.00;-20862.16;4993783;28;20287;-69
2021/05/05 02:08:16;;;;;;;0.70;0.60;;;6.10;99.90;;;6.59;100.00;-20861.59;4995112;28;20262;-68
2021/05/05 02:10:46;;;;;;;0.70;0.65;;;6.10;99.90;;;6.67;100.00;-20863.69;4993634;28;20195;-68
2021/05/05 02:13:15;;;;;;;0.70;0.60;;;6.20;99.90;;;6.81;100.00;-20867.56;4991317;28;20234;-69
2021/05/05 02:15:43;;;;;;;0.70;0.60;;;6.30;99.90;;;6.86;100.00;-20868.81;4994637;28;20164;-69
2021/05/05 02:18:12;;;;;;;0.70;0.68;;;6.30;99.90;;;6.75;100.00;-20866.03;4993622;28;20643;-68
2021/05/05 02:20:42;;;;;;;0.70;0.60;;;6.20;99.90;;;6.57;100.00;-20861.03;5014491;28;20658;-68
2021/05/05 02:23:10;;;;;;;0.70;0.60;;;6.10;99.90;;;6.39;100.00;-20856.03;4983809;28;20227;-69
2021/05/05 02:25:38;;;;;;;0.70;0.60;;;5.90;99.90;;;6.35;100.00;-20854.94;4993178;28;20202;-68
2021/05/05 02:28:09;;;;;;;0.70;0.60;;;5.90;99.90;;;6.25;100.00;-20852.28;4977618;28;20234;-68
2021/05/05 02:30:58;;;;;;;0.70;0.60;;;5.80;99.90;;;6.12;100.00;-20848.81;5008959;28;20264;-69
2021/05/05 02:33:27;;;;;;;0.70;0.70;;;5.70;99.90;;;6.11;100.00;-20848.53;4981512;28;20191;-68
2021/05/05 02:35:54;;;;;;;0.70;0.60;;;5.70;99.90;;;6.28;100.00;-20853.13;4993547;28;20219;-68
2021/05/05 02:38:21;;;;;;;0.70;0.60;;;5.80;99.90;;;6.46;100.00;-20858.00;4993352;28;20750;-70
2021/05/05 02:40:49;;;;;;;0.70;0.60;;;6.00;99.90;;;6.74;100.00;-20865.78;4992388;28;20203;-69
2021/05/05 02:43:19;;;;;;;0.70;0.60;;;6.20;99.90;;;6.59;100.00;-20861.59;4961450;28;20680;-69
2021/05/05 02:45:46;;;;;;;0.70;0.60;;;6.10;99.90;;;6.43;100.00;-20857.28;5012452;28;20190;-69
2021/05/05 02:48:15;;;;;;;0.80;0.70;;;6.00;99.90;;;6.58;100.00;-20861.31;4979967;28;20234;-69
2021/05/05 02:50:42;;;;;;;0.70;0.60;;;6.00;99.90;;;6.82;100.00;-20867.84;5007798;28;20188;-70
2021/05/05 02:53:09;;;;;;;0.73;0.70;;;6.20;99.90;;;7.00;100.00;-20872.72;4994436;28;20234;-68
2021/05/05 02:55:36;;;;;;;0.70;0.60;;;6.30;99.90;;;6.99;100.00;-20872.56;5011893;28;20199;-69
2021/05/05 02:58:03;;;;;;;0.70;0.70;;;6.30;99.90;;;6.83;100.00;-20868.13;5014028;28;20218;-69
2021/05/05 03:00:30;;;;;;;0.70;0.60;;;6.30;99.90;;;6.84;100.00;-20868.28;4977800;28;20255;-68
2021/05/05 03:02:57;;;;;;;0.70;0.60;;;6.20;99.90;;;6.69;100.00;-20864.38;4994230;28;20246;-69
2021/05/05 03:05:25;;;;;;;0.70;0.60;;;6.20;99.90;;;6.64;100.00;-20863.00;4976233;28;20196;-69
2021/05/05 03:07:52;;;;;;;0.70;0.60;;;6.10;99.90;;;6.65;100.00;-20863.25;4993553;28;20747;-69
2021/05/05 03:10:19;;;;;;;0.70;0.60;;;6.10;99.90;;;6.63;100.00;-20862.56;4980316;28;20249;-68
2021/05/05 03:12:46;;;;;;;0.70;0.70;;;6.10;99.90;;;6.57;100.00;-20861.03;4982425;28;20632;-68
2021/05/05 03:15:13;;;;;;;0.80;0.70;;;6.10;99.90;;;6.64;100.00;-20863.00;4994246;28;20198;-70
2021/05/05 03:17:41;;;;;;;0.80;0.70;;;6.10;99.90;;;6.65;100.00;-20863.25;4994254;28;20180;-67
2021/05/05 03:20:12;;;;;;;0.80;0.70;;;6.10;99.90;;;6.72;100.00;-20865.06;4995568;28;20268;-68
2021/05/05 03:22:40;;;;;;;0.70;0.60;;;6.20;99.90;;;6.76;100.00;-20866.19;4992986;28;20223;-68
2021/05/05 03:25:09;;;;;;;0.70;0.60;;;6.20;99.90;;;6.71;100.00;-20864.78;4993258;28;20241;-68
2021/05/05 03:27:36;;;;;;;0.77;0.65;;;6.10;99.90;;;6.66;100.00;-20863.53;4993453;28;20642;-70
2021/05/05 03:30:06;;;;;;;0.70;0.60;;;6.10;99.90;;;6.58;100.00;-20861.31;4991581;28;20257;-68
2021/05/05 03:32:34;;;;;;;0.70;0.60;;;6.00;99.90;;;6.64;100.00;-20863.00;4994921;28;20222;-68
2021/05/05 03:35:02;;;;;;;0.70;0.60;;;6.00;99.90;;;6.83;100.00;-20868.00;4995837;28;20222;-69
2021/05/05 03:37:31;;;;;;;0.70;0.60;;;6.10;99.90;;;6.82;100.00;-20867.72;4998610;28;20534;-68
2021/05/05 03:39:59;;;;;;;0.70;0.60;;;6.20;99.90;;;6.75;100.00;-20865.91;4992493;28;20222;-68
2021/05/05 03:42:26;;;;;;;0.80;0.60;;;6.20;99.90;;;6.68;100.00;-20864.09;4987908;28;20188;-69
2021/05/05 03:44:53;;;;;;;0.70;0.60;;;6.10;99.90;;;6.53;100.00;-20859.94;4991246;28;20348;-71
2021/05/05 03:47:20;;;;;;;0.70;0.60;;;5.90;99.90;;;6.34;100.00;-20854.66;4992986;28;20187;-71
2021/05/05 03:49:48;;;;;;;0.70;0.60;;;5.90;99.90;;;6.36;100.00;-20855.34;4993081;28;20572;-68
2021/05/05 03:52:15;;;;;;;0.70;0.70;;;5.90;99.90;;;6.35;100.00;-20855.06;4976533;28;20175;-68
2021/05/05 03:54:42;;;;;;;0.70;0.65;;;5.90;99.90;;;6.18;100.00;-20850.34;4993270;28;20218;-69
2021/05/05 03:57:11;;;;;;;0.70;0.60;;;5.80;99.90;;;6.26;100.00;-20852.56;5011639;28;20749;-68
2021/05/05 03:59:38;;;;;;;0.70;0.70;;;5.80;99.90;;;6.35;100.00;-20854.94;5004908;28;20295;-68
2021/05/05 04:02:05;;;;;;;0.70;0.60;;;5.80;99.90;;;6.40;100.00;-20856.47;4991938;28;20196;-68
2021/05/05 04:04:32;;;;;;;0.70;0.70;;;5.90;99.90;;;6.41;100.00;-20856.59;4993640;28;20195;-68
2021/05/05 04:07:00;;;;;;;0.70;0.60;;;5.90;99.90;;;6.48;100.00;-20858.53;4994148;28;20188;-68
2021/05/05 04:09:27;;;;;;;0.70;0.60;;;5.90;99.90;;;6.47;100.00;-20858.25;4995926;28;20253;-68
2021/05/05 04:11:55;;;;;;;0.70;0.60;;;5.90;99.90;;;6.40;100.00;-20856.31;4975579;28;20552;-68
2021/05/05 04:14:22;;;;;;;0.70;0.60;;;5.90;99.90;;;6.32;100.00;-20854.09;4979416;28;20278;-70
2021/05/05 04:17:08;;;;;;;0.70;0.60;;;5.90;99.90;;;6.46;100.00;-20858.00;4997120;28;20257;-68
2021/05/05 04:19:57;;;;;;;0.70;0.70;;;5.90;99.90;;;6.40;100.00;-20856.31;4996629;28;20662;-68
2021/05/05 04:22:42;;;;;;;0.70;0.60;;;5.90;99.90;;;6.37;100.00;-20855.47;4982788;28;20212;-69
2021/05/05 04:25:28;;;;;;;0.80;0.70;;;5.90;99.90;;;6.45;100.00;-20857.72;5008819;28;20183;-69
2021/05/05 04:27:55;;;;;;;0.70;0.60;;;5.90;99.90;;;6.57;100.00;-20861.03;4979986;28;20211;-69
2021/05/05 04:30:24;;;;;;;0.70;0.63;;;6.00;99.90;;;6.56;100.00;-20860.78;4996696;28;20187;-70
2021/05/05 04:32:52;;;;;;;0.70;0.60;;;6.00;99.90;;;6.56;100.00;-20860.78;4987375;28;20660;-70
2021/05/05 04:35:21;;;;;;;0.80;0.70;;;6.00;99.90;;;6.69;100.00;-20864.38;4996122;28;20196;-69
2021/05/05 04:37:48;;;;;;;0.70;0.60;;;6.10;99.90;;;6.62;100.00;-20862.28;4997672;28;20291;-70
2021/05/05 04:40:15;;;;;;;0.70;0.63;;;6.10;99.90;;;6.73;100.00;-20865.50;4995902;28;20579;-69
2021/05/05 04:42:42;;;;;;;0.70;0.60;;;6.10;99.90;;;6.80;100.00;-20867.28;4996715;28;20184;-69
2021/05/05 04:45:11;;;;;;;0.70;0.60;;;6.30;99.90;;;6.95;100.00;-20871.47;4996395;28;20266;-69
2021/05/05 04:47:39;;;;;;;0.70;0.60;;;6.30;99.90;;;6.93;100.00;-20870.91;4996799;28;20605;-69
2021/05/05 04:50:10;;;;;;;0.70;0.60;;;6.30;99.90;;;7.14;100.00;-20876.59;4994730;28;20203;-69
2021/05/05 04:52:37;;;;;;;0.70;0.60;;;6.40;99.90;;;7.07;100.00;-20874.66;4997552;28;20192;-69
2021/05/05 04:55:06;;;;;;;0.70;0.70;;;6.40;99.90;;;7.17;100.00;-20877.44;4994619;28;20186;-69
2021/05/05 04:57:35;;;;;;;0.70;0.60;;;6.40;99.90;;;7.33;100.00;-20881.59;4996426;28;20539;-71
2021/05/05 05:00:04;;;;;;;0.70;0.60;;;6.50;99.90;;;7.22;100.00;-20878.69;4995235;28;20246;-70
2021/05/05 05:02:32;;;;;;;0.70;0.60;;;6.50;99.90;;;7.22;100.00;-20878.81;4996508;28;20191;-69
2021/05/05 05:05:01;;;;;;;0.70;0.60;;;6.60;99.90;;;7.26;100.00;-20879.81;5000266;28;20242;-70
2021/05/05 05:07:28;;;;;;;0.70;0.60;;;6.50;99.90;;;7.15;100.00;-20876.88;4997628;28;20187;-70
2021/05/05 05:09:55;;;;;;;0.70;0.60;;;6.50;99.90;;;7.14;100.00;-20876.47;5000445;28;20179;-70
2021/05/05 05:12:22;;;;;;;0.70;0.60;;;6.50;99.90;;;7.21;100.00;-20878.41;4997431;28;20636;-71
2021/05/05 05:14:49;;;;;;;0.70;0.50;;;6.50;99.90;;;7.09;100.00;-20875.06;4995421;28;20195;-70
2021/05/05 05:17:16;;;;;;;0.70;0.60;;;6.50;99.90;;;7.09;100.00;-20875.06;4997420;28;20180;-71
2021/05/05 05:19:44;;;;;;;0.70;0.60;;;6.40;99.90;;;7.33;100.00;-20881.59;4997389;28;20187;-71
2021/05/05 05:22:12;;;;;;;0.70;0.60;;;6.50;99.90;;;7.19;100.00;-20878.00;4992930;28;20200;-70
2021/05/05 05:24:40;;;;;;;0.70;0.60;;;6.60;99.90;;;7.37;100.00;-20882.72;4994981;28;20680;-70
2021/05/05 05:27:07;;;;;;;0.70;0.60;;;6.70;99.90;;;7.61;100.00;-20889.38;4995513;28;20242;-73
2021/05/05 05:29:34;;;;;;;0.70;0.60;;;6.70;99.90;;;7.65;100.00;-20890.34;4977047;28;20258;-69
2021/05/05 05:32:01;;;;;;;0.70;0.60;;;6.80;99.90;;;7.78;100.00;-20893.81;4995824;28;20196;-70
2021/05/05 05:34:28;;;;;;;0.70;0.60;;;6.90;99.90;;;7.92;100.00;-20897.72;5001562;28;20263;-71
2021/05/05 05:36:55;;;;;;;0.70;0.60;;;7.00;99.90;;;8.09;100.00;-20902.28;5000530;28;20188;-70
2021/05/05 05:39:23;;;;;;;0.70;0.60;;;7.10;99.90;;;8.18;100.00;-20904.91;4995278;28;20269;-71
2021/05/05 05:41:54;;;;;;;0.70;0.50;;;7.10;99.90;;;7.87;100.00;-20896.31;5003329;28;20823;-69
2021/05/05 05:44:21;;;;;;;0.70;0.60;;;7.20;99.90;;;8.26;100.00;-20907.00;5005165;28;20466;-70
2021/05/05 05:46:48;;;;;;;0.70;0.60;;;7.30;99.90;;;8.33;100.00;-20908.81;4983175;28;20451;-71
2021/05/05 05:49:15;;;;;;;0.70;0.60;;;7.30;99.90;;;8.17;100.00;-20904.66;4996237;28;20794;-69
2021/05/05 05:51:42;;;;;;;0.70;0.60;;;7.30;99.90;;;8.57;100.00;-20915.31;4996726;28;20499;-71
2021/05/05 05:54:09;;;;;;;0.70;0.60;;;7.30;99.90;;;8.53;100.00;-20914.34;4995672;28;20985;-70
2021/05/05 05:56:37;;;;;;;0.70;0.60;;;7.40;99.90;;;8.73;100.00;-20919.75;4994705;28;20528;-72
2021/05/05 05:59:04;;;;;;;0.70;0.60;;;7.40;99.90;;;8.57;100.00;-20915.47;5005355;28;20451;-70
2021/05/05 06:01:31;;;;;;;0.70;0.60;;;7.50;99.90;;;8.42;100.00;-20911.31;4995679;28;20419;-71
2021/05/05 06:03:58;;;;;;;0.70;0.50;;;7.60;99.90;;;8.78;100.00;-20921.16;4994614;28;20466;-70
2021/05/05 06:06:25;;;;;;;0.70;0.50;;;7.60;99.90;;;8.81;100.00;-20921.84;5003763;28;20465;-70
2021/05/05 06:08:52;;;;;;;0.70;0.60;;;7.60;99.90;;;8.76;100.00;-20920.47;4980904;28;20473;-71
2021/05/05 06:11:19;;;;;;;0.70;0.60;;;7.60;99.90;;;9.09;100.00;-20929.59;5014920;28;20418;-72
2021/05/05 06:13:48;;;;;;;0.70;0.53;;;7.70;99.90;;;8.83;100.00;-20922.53;5002040;28;20441;-73
2021/05/05 06:16:15;;;;;;;0.70;0.60;;;7.80;99.90;;;8.80;100.00;-20921.56;5015205;28;20426;-71
2021/05/05 06:18:42;;;;;;;0.70;0.60;;;7.80;99.90;;;9.27;100.00;-20934.44;4988075;28;20423;-72
2021/05/05 06:21:10;;;;;;;0.70;0.60;;;7.80;99.90;;;8.66;100.00;-20917.97;4985939;28;21140;-71
2021/05/05 06:23:38;;;;;;;0.70;0.60;;;7.70;99.90;;;9.10;100.00;-20929.88;4977329;28;20840;-71
2021/05/05 06:26:05;;;;;;;0.70;0.57;;;7.80;99.90;;;9.29;100.00;-20934.88;4993862;28;20448;-70
2021/05/05 06:28:33;;;;;;;0.70;0.60;;;7.80;99.90;;;9.02;100.00;-20927.66;4995683;28;20526;-71
2021/05/05 06:31:01;;;;;;;0.70;0.60;;;7.90;99.90;;;9.19;100.00;-20932.38;4994514;28;20823;-70
2021/05/05 06:33:28;;;;;;;0.70;0.57;;;7.80;99.90;;;9.32;100.00;-20935.84;4993213;28;20431;-72
2021/05/05 06:35:56;;;;;;;0.70;0.57;;;7.80;99.90;;;8.73;100.00;-20919.75;4960802;28;20474;-70
2021/05/05 06:38:23;;;;;;;0.70;0.60;;;7.90;99.90;;;8.79;100.00;-20921.28;4979095;28;20544;-69
2021/05/05 06:40:50;;;;;;;0.70;0.60;;;7.80;99.90;;;9.08;100.00;-20929.31;4992094;28;20422;-70
2021/05/05 06:43:21;;;;;;;0.70;0.60;;;7.80;99.90;;;9.35;100.00;-20936.53;4993708;28;20966;-71
2021/05/05 06:45:48;;;;;;;0.70;0.60;;;7.80;99.90;;;8.99;100.00;-20926.84;4994719;28;20903;-70
2021/05/05 06:48:18;;;;;;;0.70;0.60;;;8.00;99.90;;;9.04;100.00;-20928.22;4976372;28;20895;-71
2021/05/05 06:50:46;;;;;;;0.70;0.60;;;7.90;99.90;;;9.04;100.00;-20928.22;4976755;28;20415;-70
2021/05/05 06:53:14;;;;;;;0.70;0.60;;;7.90;99.90;;;9.32;100.00;-20935.84;4995132;28;20451;-72
2021/05/05 06:55:43;;;;;;;0.70;0.60;;;8.10;99.90;;;10.10;100.00;-20956.88;4992966;28;20498;-71
2021/05/05 06:58:10;;;;;;;0.70;0.60;;;8.40;99.90;;;10.03;100.00;-20955.09;4976437;28;20443;-71
2021/05/05 07:00:39;;;;;;;0.70;0.70;;;8.60;99.90;;;9.41;100.00;-20938.19;4991745;28;20459;-71
2021/05/05 07:03:07;;;;;;;0.70;0.53;;;8.10;99.90;;;8.64;100.00;-20917.41;4976772;28;20434;-70
2021/05/05 07:05:35;;;;;;;0.70;0.60;;;7.20;99.90;;;8.08;100.00;-20902.16;4984319;28;20423;-70
2021/05/05 07:08:03;;;;;;;0.70;0.60;;;7.00;99.90;;;7.86;100.00;-20896.03;4980340;28;20564;-72
2021/05/05 07:10:31;;;;;;;0.70;0.60;;;6.80;99.90;;;8.21;100.00;-20905.75;4976995;28;20811;-69
2021/05/05 07:12:58;;;;;;;0.80;0.80;;;7.00;99.90;;;8.31;100.00;-20908.25;4992211;28;20805;-72
2021/05/05 07:15:25;;;;;;;0.70;0.60;;;7.00;99.90;;;7.75;100.00;-20893.13;4993302;28;20547;-70
2021/05/05 07:17:52;;;;;;;0.70;0.63;;;6.70;99.90;;;6.90;100.00;-20870.06;4996433;28;20438;-69
2021/05/05 07:20:20;;;;;;;0.70;0.60;;;6.30;99.90;;;6.76;100.00;-20866.19;4961350;28;20543;-70
2021/05/05 07:22:47;;;;;;;0.70;0.60;;;6.10;99.90;;;6.81;100.00;-20867.56;4976837;28;20616;-70
2021/05/05 07:25:15;;;;;;;0.70;0.70;;;6.00;99.90;;;6.84;100.00;-20868.28;4985386;28;20203;-70
2021/05/05 07:27:42;;;;;;;0.70;0.60;;;6.10;99.90;;;7.10;100.00;-20875.50;5003461;28;21115;-67
2021/05/05 07:30:13;;;;;;;0.70;0.60;;;6.20;99.90;;;7.07;100.00;-20874.66;5006626;28;20212;-72
2021/05/05 07:32:41;;;;;;;0.70;0.60;;;6.40;99.90;;;7.43;100.00;-20884.38;5000593;28;20548;-69
2021/05/05 07:35:10;;;;;;;0.70;0.60;;;6.50;99.90;;;7.77;100.00;-20893.53;5001125;28;20581;-69
2021/05/05 07:50:51;;;;;;;0.70;0.60;;;9.30;99.90;;;11.08;100.00;-20983.44;5015733;28;20429;-70
2021/05/05 07:53:17;;;;;;;0.80;0.70;;;9.50;99.90;;;10.82;100.00;-20976.41;5006040;28;20516;-70
2021/05/05 07:55:44;;;;;;;0.70;0.60;;;9.20;99.90;;;10.16;100.00;-20958.69;4990907;28;20989;-68
2021/05/05 07:58:12;;;;;;;0.70;0.60;;;8.80;99.90;;;9.89;100.00;-20951.22;4997797;28;20433;-70
2021/05/05 08:00:40;;;;;;;0.70;0.60;;;8.40;99.90;;;9.83;100.00;-20949.56;4979378;28;20457;-70
2021/05/05 08:03:08;;;;;;;0.70;0.60;;;8.20;99.90;;;10.11;100.00;-20957.16;4996468;28;20454;-71
2021/05/05 08:05:36;;;;;;;0.70;0.50;;;8.30;99.90;;;10.01;100.00;-20954.41;4996331;28;20547;-71
2021/05/05 08:08:04;;;;;;;0.70;0.60;;;8.50;99.90;;;10.29;100.00;-20962.16;4979740;28;20826;-71
2021/05/05 08:10:32;;;;;;;0.70;0.60;;;8.50;99.90;;;9.94;100.00;-20952.59;4997261;28;20421;-69
2021/05/05 08:13:00;;;;;;;0.70;0.60;;;8.70;99.90;;;10.07;100.00;-20956.19;4996013;28;20451;-71
2021/05/05 08:15:30;;;;;;;1.27;1.07;;;8.70;99.90;;;9.62;100.00;-20944.00;4996646;28;20440;-71
2021/05/05 08:17:58;;;;;;;0.70;0.60;;;8.40;99.90;;;9.64;100.00;-20944.56;5011764;28;20447;-71
2021/05/05 08:20:25;;;;;;;0.70;0.60;;;8.20;99.90;;;8.47;100.00;-20912.69;4985701;28;20514;-72
2021/05/05 08:22:52;;;;;;;0.70;0.60;;;7.10;99.90;;;7.47;100.00;-20885.50;5001293;28;20465;-72
2021/05/05 08:25:19;;;;;;;0.70;0.60;;;6.00;99.90;;;6.84;100.00;-20868.41;4987639;28;20468;-71
2021/05/05 08:27:46;;;;;;;0.80;0.60;;;5.50;99.90;;;6.52;100.00;-20859.66;4995289;28;20447;-71
2021/05/05 08:30:17;;;;;;;0.70;0.60;;;5.40;99.90;;;6.67;100.00;-20863.69;4978656;28;20203;-71
2021/05/05 08:32:45;;;;;;;0.70;0.60;;;5.60;99.90;;;6.98;100.00;-20872.28;4996217;28;20219;-70
2021/05/05 08:35:13;;;;;;;0.70;0.52;;;5.70;99.90;;;6.85;100.00;-20702.38;4995523;28;20203;-71
2021/05/05 08:37:40;;;;;;;0.70;0.60;;;5.60;99.90;;;6.63;100.00;-20335.72;4994904;28;20215;-72
2021/05/05 08:40:12;;;;;;;0.70;0.60;;;5.60;99.90;;;6.70;100.00;-20101.13;4995734;28;20207;-71
2021/05/05 08:42:41;;;;;;;0.70;0.70;;;5.60;99.90;;;6.83;100.00;-19795.53;4995713;28;20187;-73
2021/05/05 08:45:15;;;;;;;0.70;0.70;;;5.70;99.90;;;7.00;100.00;-20029.09;4995093;28;20207;-71
2021/05/05 08:47:46;;;;;;;0.70;0.70;;;5.70;99.90;;;6.62;100.00;-20407.63;4994657;28;20195;-72
2021/05/05 08:50:15;;;;;;;2.13;1.35;;;5.80;99.90;;;6.80;100.00;-20238.09;5005828;28;20190;-73
2021/05/05 08:52:42;;;;;;;0.70;0.60;;;5.80;99.90;;;6.92;100.00;-20221.38;4999040;28;20211;-74
2021/05/05 08:55:17;;;;;;;0.70;0.60;;;5.80;99.90;;;7.04;100.00;-20271.78;5001319;28;20683;-73
2021/05/05 08:57:45;;;;;;;0.70;0.60;;;5.90;99.90;;;7.02;100.00;-20873.41;4994627;28;20624;-73
2021/05/05 09:00:18;;;;;;;0.70;0.60;;;6.00;99.90;;;7.09;100.00;-20875.22;5001344;28;20200;-73
2021/05/05 09:02:45;;;;;;;0.70;0.60;;;6.00;99.90;;;7.34;100.00;-20882.03;5015754;28;20183;-70
2021/05/05 09:05:51;;;;;;;0.70;0.60;;;6.20;99.90;;;7.33;100.00;-20881.59;4973611;28;20226;-70
2021/05/05 09:08:21;;;;;;;0.70;0.60;;;6.30;99.90;;;7.40;100.00;-20883.53;4983474;28;20674;-71
2021/05/05 09:11:11;;;;;;;0.70;0.60;;;6.20;99.90;;;7.46;100.00;-20885.34;4995308;28;20200;-71
2021/05/05 09:13:51;;;;;;;0.70;0.60;;;6.50;99.90;;;7.83;100.00;-20895.22;4978409;28;20474;-71
2021/05/05 09:16:23;;;;;;;0.70;0.60;;;6.70;99.90;;;8.18;100.00;-20904.78;4993002;28;20217;-72
2021/05/05 09:19:05;;;;;;;0.70;0.60;;;7.00;99.90;;;9.96;100.00;-20953.00;4994952;28;20196;-71
2021/05/05 09:21:35;;;;;;;0.70;0.57;;;8.00;99.90;;;11.53;100.00;-20995.63;4993828;28;20968;-69
2021/05/05 09:24:18;;;;;;;0.70;0.57;;;9.00;99.90;;;13.45;100.00;-21047.66;4978447;28;20874;-70
2021/05/05 09:26:48;;;;;;;0.80;0.70;;;9.70;99.90;;;13.76;100.00;-21056.06;4979075;28;20480;-70
2021/05/05 09:29:15;;;;;;;0.70;0.60;;;9.90;99.90;;;12.00;100.00;-21008.47;4995607;28;20945;-70
2021/05/05 09:31:45;;;;;;;0.70;0.60;;;9.50;99.90;;;11.47;100.00;-20993.97;4984492;28;20444;-69
2021/05/05 09:34:13;;;;;;;0.97;0.87;;;9.10;99.90;;;11.80;100.00;-21002.94;4985411;28;20928;-70
2021/05/05 09:36:58;;;;;;;0.70;0.60;;;9.20;99.90;;;11.70;100.00;-21000.16;5001155;28;20934;-71
2021/05/05 09:39:31;;;;;;;0.70;0.60;;;9.20;99.90;;;11.74;100.00;-21001.28;4978797;28;20474;-70
2021/05/05 09:42:00;;;;;;;0.70;0.57;;;9.10;99.90;;;10.68;100.00;-20972.66;5008254;28;20481;-71
2021/05/05 09:44:27;;;;;;;0.70;0.57;;;8.70;99.90;;;10.52;100.00;-20968.38;4990888;28;20523;-73
2021/05/05 09:46:57;;;;;;;0.70;0.60;;;8.80;99.90;;;10.15;100.00;-20958.41;5008131;28;20434;-71
2021/05/05 09:49:28;;;;;;;0.70;0.57;;;8.50;99.90;;;9.72;100.00;-20946.50;4993768;28;20505;-70
2021/05/05 09:52:00;;;;;;;0.70;0.60;;;8.40;99.90;;;9.86;100.00;-20950.53;4994573;28;20418;-71
2021/05/05 09:54:32;;;;;;;0.70;0.60;;;8.60;99.90;;;10.16;100.00;-20958.69;5012224;28;20449;-70
2021/05/05 09:57:29;;;;;;;0.70;0.50;;;8.60;99.90;;;9.74;100.00;-20947.06;5012695;28;20967;-71
2021/05/05 10:00:05;;;;;;;0.70;0.60;;;8.60;99.90;;;10.09;100.00;-20956.75;4981015;28;20537;-71
2021/05/05 10:02:47;;;;;;;0.70;0.60;;;8.80;99.90;;;10.92;100.00;-20979.16;4981611;28;20451;-71
2021/05/05 10:05:17;;;;;;;0.70;0.60;;;9.50;99.90;;;13.20;100.00;-21040.88;4996476;28;20519;-71
2021/05/05 10:07:57;;;;;;;0.70;0.60;;;10.80;99.90;;;12.90;100.00;-21032.75;4992346;28;20490;-71
2021/05/05 10:10:26;;;;;;;0.70;0.60;;;10.30;99.90;;;12.37;100.00;-21018.25;4970116;28;20466;-71
2021/05/05 10:12:56;;;;;;;0.70;0.60;;;10.20;99.90;;;13.80;100.00;-21056.88;4999285;28;20452;-71
2021/05/05 10:15:24;;;;;;;0.70;0.60;;;11.10;99.90;;;14.23;100.00;-21068.59;4974305;28;20463;-70
2021/05/05 10:17:53;;;;;;;0.80;0.70;;;11.40;99.90;;;14.50;100.00;-21075.88;4975740;28;20409;-72
2021/05/05 10:20:24;;;;;;;0.80;0.70;;;11.70;99.90;;;15.04;100.00;-21090.34;4990590;28;20431;-71
2021/05/05 10:22:56;;;;;;;0.70;0.60;;;11.70;99.90;;;13.34;100.00;-21044.47;4982376;28;20792;-72
2021/05/05 10:25:25;;;;;;;0.77;0.70;;;10.90;99.90;;;12.68;100.00;-21026.69;4992016;28;20841;-74
2021/05/05 10:27:53;;;;;;;0.70;0.60;;;10.10;99.90;;;12.07;100.00;-21010.25;4995863;28;20430;-71
2021/05/05 10:30:24;;;;;;;0.70;0.60;;;9.80;99.90;;;11.84;100.00;-21004.03;4994771;28;20417;-71
2021/05/05 10:33:17;;;;;;;0.70;0.60;;;10.10;99.90;;;12.03;100.00;-21009.16;4994630;28;20427;-73
2021/05/05 10:35:45;;;;;;;0.70;0.60;;;10.10;99.90;;;12.23;100.00;-21014.53;4977778;28;20426;-73
2021/05/05 10:38:34;;;;;;;0.70;0.60;;;10.00;99.60;;;12.87;100.00;-21031.94;4987524;28;20479;-72
2021/05/05 10:41:09;;;;;;;0.70;0.60;;;10.80;99.50;;;13.08;100.00;-21037.59;4975574;28;20774;-75